sensor_id;sensor_type;location;lat;lon;timestamp;P1;durP1;ratioP1;P2;durP2;ratioP2
34060;SDS011;20336;-33.424;-70.638;2022-10-22T00:00:50;25.10;;;3.10;;
34060;SDS011;20336;-33.424;-70.638;2022-10-22T00:03:17;12.02;;;2.45;;
34060;SDS011;20336;-33.424;-70.638;2022-10-22T00:05:44;6.35;;;2.35;;
34060;SDS011;20336;-33.424;-70.638;2022-10-22T00:08:10;3.58;;;1.75;;
34060;SDS011;20336;-33.424;-70.638;2022-10-22T00:10:38;9.88;;;2.53;;
34060;SDS011;20336;-33.424;-70.638;2022-10-22T00:13:05;8.30;;;1.73;;
34060;SDS011;20336;-33.424;-70.638;2022-10-22T00:15:32;8.68;;;2.08;;
34060;SDS011;20336;-33.424;-70.638;2022-10-22T00:17:59;8.70;;;2.22;;
34060;SDS011;20336;-33.424;-70.638;2022-10-22T00:20:26;12.70;;;2.20;;
34060;SDS011;20336;-33.424;-70.638;2022-10-22T00:22:53;8.90;;;2.30;;
34060;SDS011;20336;-33.424;-70.638;2022-10-22T00:25:20;12.25;;;2.67;;
34060;SDS011;20336;-33.424;-70.638;2022-10-22T00:27:46;10.95;;;4.13;;
34060;SDS011;20336;-33.424;-70.638;2022-10-22T00:30:13;17.50;;;5.45;;
34060;SDS011;20336;-33.424;-70.638;2022-10-22T00:32:40;17.35;;;4.70;;
34060;SDS011;20336;-33.424;-70.638;2022-10-22T00:35:07;13.60;;;4.13;;
34060;SDS011;20336;-33.424;-70.638;2022-10-22T00:37:34;10.82;;;3.60;;
34060;SDS011;20336;-33.424;-70.638;2022-10-22T00:40:00;9.82;;;3.10;;
34060;SDS011;20336;-33.424;-70.638;2022-10-22T00:42:27;11.02;;;2.70;;
34060;SDS011;20336;-33.424;-70.638;2022-10-22T00:45:06;6.72;;;2.08;;
34060;SDS011;20336;-33.424;-70.638;2022-10-22T00:50:00;9.88;;;2.30;;
34060;SDS011;20336;-33.424;-70.638;2022-10-22T00:52:27;21.13;;;3.30;;
34060;SDS011;20336;-33.424;-70.638;2022-10-22T00:54:54;5.90;;;2.40;;
34060;SDS011;20336;-33.424;-70.638;2022-10-22T00:57:21;10.48;;;2.30;;
34060;SDS011;20336;-33.424;-70.638;2022-10-22T00:59:48;6.63;;;2.17;;
34060;SDS011;20336;-33.424;-70.638;2022-10-22T01:02:15;4.18;;;1.92;;
34060;SDS011;20336;-33.424;-70.638;2022-10-22T01:04:42;8.90;;;3.47;;
34060;SDS011;20336;-33.424;-70.638;2022-10-22T01:07:18;9.20;;;2.97;;
34060;SDS011;20336;-33.424;-70.638;2022-10-22T01:09:55;11.02;;;4.53;;
34060;SDS011;20336;-33.424;-70.638;2022-10-22T01:23:01;16.08;;;6.40;;
34060;SDS011;20336;-33.424;-70.638;2022-10-22T01:30:37;9.73;;;4.45;;
34060;SDS011;20336;-33.424;-70.638;2022-10-22T01:33:05;8.38;;;2.90;;
34060;SDS011;20336;-33.424;-70.638;2022-10-22T01:35:39;9.02;;;2.50;;
34060;SDS011;20336;-33.424;-70.638;2022-10-22T01:38:08;9.25;;;2.70;;
34060;SDS011;20336;-33.424;-70.638;2022-10-22T01:40:36;11.00;;;2.70;;
34060;SDS011;20336;-33.424;-70.638;2022-10-22T01:43:04;8.10;;;2.80;;
34060;SDS011;20336;-33.424;-70.638;2022-10-22T01:45:36;8.48;;;3.35;;
34060;SDS011;20336;-33.424;-70.638;2022-10-22T01:50:36;29.63;;;15.02;;
34060;SDS011;20336;-33.424;-70.638;2022-10-22T01:55:54;10.50;;;3.47;;
34060;SDS011;20336;-33.424;-70.638;2022-10-22T02:00:55;11.25;;;3.55;;
34060;SDS011;20336;-33.424;-70.638;2022-10-22T02:03:28;7.55;;;2.88;;
34060;SDS011;20336;-33.424;-70.638;2022-10-22T02:05:58;6.50;;;2.90;;
34060;SDS011;20336;-33.424;-70.638;2022-10-22T02:08:28;49.92;;;24.70;;
34060;SDS011;20336;-33.424;-70.638;2022-10-22T02:10:56;13.77;;;6.63;;
34060;SDS011;20336;-33.424;-70.638;2022-10-22T02:13:25;11.73;;;5.45;;
34060;SDS011;20336;-33.424;-70.638;2022-10-22T02:15:53;22.75;;;11.52;;
34060;SDS011;20336;-33.424;-70.638;2022-10-22T02:18:22;12.50;;;3.70;;
34060;SDS011;20336;-33.424;-70.638;2022-10-22T02:20:50;6.47;;;2.22;;
34060;SDS011;20336;-33.424;-70.638;2022-10-22T02:23:17;7.25;;;3.30;;
34060;SDS011;20336;-33.424;-70.638;2022-10-22T02:25:46;8.27;;;3.03;;
34060;SDS011;20336;-33.424;-70.638;2022-10-22T02:28:25;9.35;;;3.30;;
34060;SDS011;20336;-33.424;-70.638;2022-10-22T02:30:56;9.00;;;2.47;;
34060;SDS011;20336;-33.424;-70.638;2022-10-22T02:33:35;7.78;;;2.47;;
34060;SDS011;20336;-33.424;-70.638;2022-10-22T02:36:04;8.25;;;2.70;;
34060;SDS011;20336;-33.424;-70.638;2022-10-22T02:38:32;10.52;;;3.20;;
34060;SDS011;20336;-33.424;-70.638;2022-10-22T02:41:00;7.53;;;2.80;;
34060;SDS011;20336;-33.424;-70.638;2022-10-22T02:43:27;9.70;;;2.45;;
34060;SDS011;20336;-33.424;-70.638;2022-10-22T02:45:54;8.60;;;2.10;;
34060;SDS011;20336;-33.424;-70.638;2022-10-22T02:48:21;9.02;;;2.40;;
34060;SDS011;20336;-33.424;-70.638;2022-10-22T02:50:48;9.30;;;3.22;;
34060;SDS011;20336;-33.424;-70.638;2022-10-22T02:53:14;6.95;;;2.03;;
34060;SDS011;20336;-33.424;-70.638;2022-10-22T02:55:41;5.75;;;1.98;;
34060;SDS011;20336;-33.424;-70.638;2022-10-22T02:58:08;5.63;;;2.00;;
34060;SDS011;20336;-33.424;-70.638;2022-10-22T03:00:35;3.03;;;1.73;;
34060;SDS011;20336;-33.424;-70.638;2022-10-22T03:03:02;6.60;;;2.00;;
34060;SDS011;20336;-33.424;-70.638;2022-10-22T03:05:29;6.38;;;2.08;;
34060;SDS011;20336;-33.424;-70.638;2022-10-22T03:07:55;7.88;;;2.08;;
34060;SDS011;20336;-33.424;-70.638;2022-10-22T03:10:22;9.98;;;2.10;;
34060;SDS011;20336;-33.424;-70.638;2022-10-22T03:12:49;4.73;;;2.50;;
34060;SDS011;20336;-33.424;-70.638;2022-10-22T03:15:16;6.18;;;2.05;;
34060;SDS011;20336;-33.424;-70.638;2022-10-22T03:17:43;5.93;;;2.57;;
34060;SDS011;20336;-33.424;-70.638;2022-10-22T03:20:10;7.65;;;2.70;;
34060;SDS011;20336;-33.424;-70.638;2022-10-22T03:22:36;7.60;;;1.77;;
34060;SDS011;20336;-33.424;-70.638;2022-10-22T03:25:05;7.70;;;3.90;;
34060;SDS011;20336;-33.424;-70.638;2022-10-22T03:27:34;3.03;;;1.80;;
34060;SDS011;20336;-33.424;-70.638;2022-10-22T03:30:02;5.23;;;1.70;;
34060;SDS011;20336;-33.424;-70.638;2022-10-22T03:32:29;4.37;;;1.40;;
34060;SDS011;20336;-33.424;-70.638;2022-10-22T03:34:55;3.63;;;1.45;;
34060;SDS011;20336;-33.424;-70.638;2022-10-22T03:37:23;5.17;;;1.63;;
34060;SDS011;20336;-33.424;-70.638;2022-10-22T03:39:51;8.43;;;1.30;;
34060;SDS011;20336;-33.424;-70.638;2022-10-22T03:42:18;2.13;;;1.20;;
34060;SDS011;20336;-33.424;-70.638;2022-10-22T03:44:45;4.23;;;1.60;;
34060;SDS011;20336;-33.424;-70.638;2022-10-22T03:47:12;6.60;;;2.00;;
34060;SDS011;20336;-33.424;-70.638;2022-10-22T03:49:39;2.93;;;1.40;;
34060;SDS011;20336;-33.424;-70.638;2022-10-22T03:52:06;5.10;;;1.10;;
34060;SDS011;20336;-33.424;-70.638;2022-10-22T03:54:34;2.60;;;1.27;;
34060;SDS011;20336;-33.424;-70.638;2022-10-22T03:57:01;6.70;;;1.20;;
34060;SDS011;20336;-33.424;-70.638;2022-10-22T03:59:28;4.60;;;1.40;;
34060;SDS011;20336;-33.424;-70.638;2022-10-22T04:01:54;4.47;;;1.37;;
34060;SDS011;20336;-33.424;-70.638;2022-10-22T04:04:21;4.50;;;1.60;;
34060;SDS011;20336;-33.424;-70.638;2022-10-22T04:06:48;3.07;;;1.70;;
34060;SDS011;20336;-33.424;-70.638;2022-10-22T04:09:15;6.03;;;1.43;;
34060;SDS011;20336;-33.424;-70.638;2022-10-22T04:11:42;12.57;;;1.83;;
34060;SDS011;20336;-33.424;-70.638;2022-10-22T04:14:09;3.87;;;1.73;;
34060;SDS011;20336;-33.424;-70.638;2022-10-22T04:16:39;4.80;;;1.00;;
34060;SDS011;20336;-33.424;-70.638;2022-10-22T04:19:06;2.83;;;0.90;;
34060;SDS011;20336;-33.424;-70.638;2022-10-22T04:21:33;5.33;;;1.10;;
34060;SDS011;20336;-33.424;-70.638;2022-10-22T04:24:00;3.77;;;1.50;;
34060;SDS011;20336;-33.424;-70.638;2022-10-22T04:26:27;7.83;;;1.10;;
34060;SDS011;20336;-33.424;-70.638;2022-10-22T04:28:54;4.57;;;1.20;;
34060;SDS011;20336;-33.424;-70.638;2022-10-22T04:31:22;2.93;;;1.00;;
34060;SDS011;20336;-33.424;-70.638;2022-10-22T04:33:53;3.50;;;1.03;;
34060;SDS011;20336;-33.424;-70.638;2022-10-22T04:36:20;3.40;;;1.30;;
34060;SDS011;20336;-33.424;-70.638;2022-10-22T04:38:50;4.40;;;1.13;;
34060;SDS011;20336;-33.424;-70.638;2022-10-22T04:41:18;5.40;;;1.30;;
34060;SDS011;20336;-33.424;-70.638;2022-10-22T04:43:46;2.60;;;1.13;;
34060;SDS011;20336;-33.424;-70.638;2022-10-22T04:46:13;5.53;;;1.30;;
34060;SDS011;20336;-33.424;-70.638;2022-10-22T04:48:40;2.37;;;1.20;;
34060;SDS011;20336;-33.424;-70.638;2022-10-22T04:51:09;10.03;;;1.33;;
34060;SDS011;20336;-33.424;-70.638;2022-10-22T04:53:36;2.50;;;1.13;;
34060;SDS011;20336;-33.424;-70.638;2022-10-22T04:58:34;4.23;;;1.30;;
34060;SDS011;20336;-33.424;-70.638;2022-10-22T05:01:07;4.67;;;1.33;;
34060;SDS011;20336;-33.424;-70.638;2022-10-22T05:03:34;3.53;;;1.30;;
34060;SDS011;20336;-33.424;-70.638;2022-10-22T05:06:01;2.47;;;1.13;;
34060;SDS011;20336;-33.424;-70.638;2022-10-22T05:08:28;3.90;;;1.27;;
34060;SDS011;20336;-33.424;-70.638;2022-10-22T05:10:55;3.10;;;0.80;;
34060;SDS011;20336;-33.424;-70.638;2022-10-22T05:13:21;3.77;;;1.13;;
34060;SDS011;20336;-33.424;-70.638;2022-10-22T05:15:48;2.70;;;1.03;;
34060;SDS011;20336;-33.424;-70.638;2022-10-22T05:18:15;3.20;;;1.50;;
34060;SDS011;20336;-33.424;-70.638;2022-10-22T05:20:42;4.43;;;1.30;;
34060;SDS011;20336;-33.424;-70.638;2022-10-22T05:23:09;5.17;;;1.43;;
34060;SDS011;20336;-33.424;-70.638;2022-10-22T05:25:38;4.93;;;1.60;;
34060;SDS011;20336;-33.424;-70.638;2022-10-22T05:28:05;6.60;;;1.40;;
34060;SDS011;20336;-33.424;-70.638;2022-10-22T05:30:32;4.83;;;1.30;;
34060;SDS011;20336;-33.424;-70.638;2022-10-22T05:32:59;6.30;;;1.30;;
34060;SDS011;20336;-33.424;-70.638;2022-10-22T05:35:25;6.17;;;1.40;;
34060;SDS011;20336;-33.424;-70.638;2022-10-22T05:37:52;5.13;;;1.60;;
34060;SDS011;20336;-33.424;-70.638;2022-10-22T05:40:19;5.57;;;1.87;;
34060;SDS011;20336;-33.424;-70.638;2022-10-22T05:42:46;8.57;;;2.40;;
34060;SDS011;20336;-33.424;-70.638;2022-10-22T05:45:13;4.30;;;1.77;;
34060;SDS011;20336;-33.424;-70.638;2022-10-22T05:47:39;5.57;;;1.37;;
34060;SDS011;20336;-33.424;-70.638;2022-10-22T05:50:06;5.53;;;1.60;;
34060;SDS011;20336;-33.424;-70.638;2022-10-22T05:52:33;5.87;;;1.40;;
34060;SDS011;20336;-33.424;-70.638;2022-10-22T05:55:00;3.87;;;1.57;;
34060;SDS011;20336;-33.424;-70.638;2022-10-22T05:57:27;4.13;;;1.40;;
34060;SDS011;20336;-33.424;-70.638;2022-10-22T05:59:54;6.60;;;1.70;;
34060;SDS011;20336;-33.424;-70.638;2022-10-22T06:02:21;6.63;;;2.03;;
34060;SDS011;20336;-33.424;-70.638;2022-10-22T06:04:47;6.33;;;1.93;;
34060;SDS011;20336;-33.424;-70.638;2022-10-22T06:07:14;4.53;;;1.80;;
34060;SDS011;20336;-33.424;-70.638;2022-10-22T06:09:41;5.03;;;1.90;;
34060;SDS011;20336;-33.424;-70.638;2022-10-22T06:12:08;6.93;;;1.90;;
34060;SDS011;20336;-33.424;-70.638;2022-10-22T06:14:38;5.47;;;2.00;;
34060;SDS011;20336;-33.424;-70.638;2022-10-22T06:17:04;5.40;;;1.73;;
34060;SDS011;20336;-33.424;-70.638;2022-10-22T06:19:31;4.97;;;1.97;;
34060;SDS011;20336;-33.424;-70.638;2022-10-22T06:21:58;4.97;;;1.93;;
34060;SDS011;20336;-33.424;-70.638;2022-10-22T06:24:25;5.80;;;1.97;;
34060;SDS011;20336;-33.424;-70.638;2022-10-22T06:26:52;5.80;;;1.67;;
34060;SDS011;20336;-33.424;-70.638;2022-10-22T06:29:19;5.43;;;1.63;;
34060;SDS011;20336;-33.424;-70.638;2022-10-22T06:31:47;5.23;;;1.60;;
34060;SDS011;20336;-33.424;-70.638;2022-10-22T06:34:15;3.80;;;1.53;;
34060;SDS011;20336;-33.424;-70.638;2022-10-22T06:36:43;4.37;;;1.90;;
34060;SDS011;20336;-33.424;-70.638;2022-10-22T06:39:11;4.83;;;1.80;;
34060;SDS011;20336;-33.424;-70.638;2022-10-22T06:41:39;3.47;;;2.03;;
34060;SDS011;20336;-33.424;-70.638;2022-10-22T06:44:09;7.07;;;2.03;;
34060;SDS011;20336;-33.424;-70.638;2022-10-22T06:46:38;8.20;;;2.20;;
34060;SDS011;20336;-33.424;-70.638;2022-10-22T06:49:06;5.83;;;2.00;;
34060;SDS011;20336;-33.424;-70.638;2022-10-22T06:51:33;7.40;;;2.30;;
34060;SDS011;20336;-33.424;-70.638;2022-10-22T06:54:01;7.33;;;2.17;;
34060;SDS011;20336;-33.424;-70.638;2022-10-22T06:56:28;6.00;;;1.93;;
34060;SDS011;20336;-33.424;-70.638;2022-10-22T06:58:55;4.47;;;1.60;;
34060;SDS011;20336;-33.424;-70.638;2022-10-22T07:01:24;6.63;;;2.23;;
34060;SDS011;20336;-33.424;-70.638;2022-10-22T07:03:51;9.13;;;2.60;;
34060;SDS011;20336;-33.424;-70.638;2022-10-22T07:06:18;8.53;;;2.40;;
34060;SDS011;20336;-33.424;-70.638;2022-10-22T07:08:46;7.60;;;2.30;;
34060;SDS011;20336;-33.424;-70.638;2022-10-22T07:11:13;8.10;;;2.40;;
34060;SDS011;20336;-33.424;-70.638;2022-10-22T07:13:40;6.40;;;2.20;;
34060;SDS011;20336;-33.424;-70.638;2022-10-22T07:16:08;7.93;;;2.20;;
34060;SDS011;20336;-33.424;-70.638;2022-10-22T07:18:36;6.40;;;2.70;;
34060;SDS011;20336;-33.424;-70.638;2022-10-22T07:21:03;6.60;;;2.50;;
34060;SDS011;20336;-33.424;-70.638;2022-10-22T07:23:30;5.47;;;1.87;;
34060;SDS011;20336;-33.424;-70.638;2022-10-22T07:25:57;5.27;;;1.93;;
34060;SDS011;20336;-33.424;-70.638;2022-10-22T07:28:24;4.80;;;1.90;;
34060;SDS011;20336;-33.424;-70.638;2022-10-22T07:30:52;7.80;;;2.47;;
34060;SDS011;20336;-33.424;-70.638;2022-10-22T07:33:19;7.93;;;2.00;;
34060;SDS011;20336;-33.424;-70.638;2022-10-22T07:35:46;5.77;;;2.10;;
34060;SDS011;20336;-33.424;-70.638;2022-10-22T07:38:13;6.30;;;2.20;;
34060;SDS011;20336;-33.424;-70.638;2022-10-22T07:40:39;5.03;;;1.93;;
34060;SDS011;20336;-33.424;-70.638;2022-10-22T07:43:06;9.70;;;2.50;;
34060;SDS011;20336;-33.424;-70.638;2022-10-22T07:45:33;6.50;;;2.23;;
34060;SDS011;20336;-33.424;-70.638;2022-10-22T07:48:00;7.27;;;1.93;;
34060;SDS011;20336;-33.424;-70.638;2022-10-22T07:50:27;6.17;;;2.30;;
34060;SDS011;20336;-33.424;-70.638;2022-10-22T07:52:54;5.70;;;2.27;;
34060;SDS011;20336;-33.424;-70.638;2022-10-22T07:55:21;6.50;;;2.13;;
34060;SDS011;20336;-33.424;-70.638;2022-10-22T07:57:48;7.23;;;2.50;;
34060;SDS011;20336;-33.424;-70.638;2022-10-22T08:00:15;7.70;;;2.53;;
34060;SDS011;20336;-33.424;-70.638;2022-10-22T08:02:42;6.97;;;2.57;;
34060;SDS011;20336;-33.424;-70.638;2022-10-22T08:05:09;8.63;;;2.83;;
34060;SDS011;20336;-33.424;-70.638;2022-10-22T08:07:38;6.60;;;2.00;;
34060;SDS011;20336;-33.424;-70.638;2022-10-22T08:10:05;5.47;;;2.20;;
34060;SDS011;20336;-33.424;-70.638;2022-10-22T08:12:32;5.57;;;1.93;;
34060;SDS011;20336;-33.424;-70.638;2022-10-22T08:14:59;9.00;;;2.20;;
34060;SDS011;20336;-33.424;-70.638;2022-10-22T08:17:26;3.43;;;1.80;;
34060;SDS011;20336;-33.424;-70.638;2022-10-22T08:19:53;4.03;;;1.90;;
34060;SDS011;20336;-33.424;-70.638;2022-10-22T08:22:20;4.63;;;1.23;;
34060;SDS011;20336;-33.424;-70.638;2022-10-22T08:24:46;4.67;;;1.67;;
34060;SDS011;20336;-33.424;-70.638;2022-10-22T08:27:14;3.80;;;1.60;;
34060;SDS011;20336;-33.424;-70.638;2022-10-22T08:29:41;6.90;;;1.40;;
34060;SDS011;20336;-33.424;-70.638;2022-10-22T08:32:08;4.03;;;1.70;;
34060;SDS011;20336;-33.424;-70.638;2022-10-22T08:34:35;4.57;;;1.90;;
34060;SDS011;20336;-33.424;-70.638;2022-10-22T08:37:02;4.80;;;1.53;;
34060;SDS011;20336;-33.424;-70.638;2022-10-22T08:39:30;4.73;;;1.47;;
34060;SDS011;20336;-33.424;-70.638;2022-10-22T08:47:18;4.60;;;1.60;;
34060;SDS011;20336;-33.424;-70.638;2022-10-22T08:49:46;3.73;;;1.60;;
34060;SDS011;20336;-33.424;-70.638;2022-10-22T08:52:15;2.93;;;1.40;;
34060;SDS011;20336;-33.424;-70.638;2022-10-22T08:57:21;10.57;;;2.07;;
34060;SDS011;20336;-33.424;-70.638;2022-10-22T09:00:00;6.50;;;1.90;;
34060;SDS011;20336;-33.424;-70.638;2022-10-22T09:02:51;5.33;;;1.93;;
34060;SDS011;20336;-33.424;-70.638;2022-10-22T09:07:52;5.47;;;1.90;;
34060;SDS011;20336;-33.424;-70.638;2022-10-22T09:10:21;7.20;;;1.60;;
34060;SDS011;20336;-33.424;-70.638;2022-10-22T09:12:49;3.23;;;1.23;;
34060;SDS011;20336;-33.424;-70.638;2022-10-22T09:15:17;66.87;;;5.30;;
34060;SDS011;20336;-33.424;-70.638;2022-10-22T09:17:49;11.10;;;2.03;;
34060;SDS011;20336;-33.424;-70.638;2022-10-22T09:26:11;6.60;;;1.37;;
34060;SDS011;20336;-33.424;-70.638;2022-10-22T09:28:39;2.50;;;1.33;;
34060;SDS011;20336;-33.424;-70.638;2022-10-22T09:31:12;4.50;;;1.20;;
34060;SDS011;20336;-33.424;-70.638;2022-10-22T09:33:41;5.70;;;1.43;;
34060;SDS011;20336;-33.424;-70.638;2022-10-22T09:36:12;4.23;;;1.00;;
34060;SDS011;20336;-33.424;-70.638;2022-10-22T09:38:41;5.77;;;1.27;;
34060;SDS011;20336;-33.424;-70.638;2022-10-22T09:41:10;5.60;;;1.53;;
34060;SDS011;20336;-33.424;-70.638;2022-10-22T09:43:37;4.03;;;1.30;;
34060;SDS011;20336;-33.424;-70.638;2022-10-22T09:46:05;3.80;;;1.50;;
34060;SDS011;20336;-33.424;-70.638;2022-10-22T09:48:36;6.10;;;1.60;;
34060;SDS011;20336;-33.424;-70.638;2022-10-22T09:53:40;4.80;;;1.57;;
34060;SDS011;20336;-33.424;-70.638;2022-10-22T09:56:12;4.70;;;1.40;;
34060;SDS011;20336;-33.424;-70.638;2022-10-22T09:58:43;4.23;;;1.40;;
34060;SDS011;20336;-33.424;-70.638;2022-10-22T10:01:24;5.37;;;1.60;;
34060;SDS011;20336;-33.424;-70.638;2022-10-22T10:03:51;4.93;;;1.70;;
34060;SDS011;20336;-33.424;-70.638;2022-10-22T10:06:21;4.40;;;1.70;;
34060;SDS011;20336;-33.424;-70.638;2022-10-22T10:08:48;2.83;;;1.50;;
34060;SDS011;20336;-33.424;-70.638;2022-10-22T10:17:02;3.93;;;1.80;;
34060;SDS011;20336;-33.424;-70.638;2022-10-22T10:23:02;4.63;;;1.90;;
34060;SDS011;20336;-33.424;-70.638;2022-10-22T10:24:57;2.43;;;1.60;;
34060;SDS011;20336;-33.424;-70.638;2022-10-22T10:32:33;6.87;;;1.90;;
34060;SDS011;20336;-33.424;-70.638;2022-10-22T10:37:40;8.90;;;2.27;;
34060;SDS011;20336;-33.424;-70.638;2022-10-22T10:40:14;11.60;;;2.47;;
34060;SDS011;20336;-33.424;-70.638;2022-10-22T10:47:54;6.77;;;1.83;;
34060;SDS011;20336;-33.424;-70.638;2022-10-22T10:52:59;8.43;;;2.60;;
34060;SDS011;20336;-33.424;-70.638;2022-10-22T10:55:35;7.93;;;2.27;;
34060;SDS011;20336;-33.424;-70.638;2022-10-22T11:00:40;10.50;;;2.10;;
34060;SDS011;20336;-33.424;-70.638;2022-10-22T11:05:54;11.27;;;2.67;;
34060;SDS011;20336;-33.424;-70.638;2022-10-22T11:13:35;6.80;;;2.80;;
34060;SDS011;20336;-33.424;-70.638;2022-10-22T11:16:08;9.57;;;2.90;;
34060;SDS011;20336;-33.424;-70.638;2022-10-22T11:21:35;4.10;;;2.43;;
34060;SDS011;20336;-33.424;-70.638;2022-10-22T11:28:58;9.53;;;2.50;;
34060;SDS011;20336;-33.424;-70.638;2022-10-22T11:31:27;9.77;;;2.67;;
34060;SDS011;20336;-33.424;-70.638;2022-10-22T11:34:06;8.83;;;2.40;;
34060;SDS011;20336;-33.424;-70.638;2022-10-22T11:36:37;7.80;;;2.30;;
34060;SDS011;20336;-33.424;-70.638;2022-10-22T11:39:05;6.73;;;2.20;;
34060;SDS011;20336;-33.424;-70.638;2022-10-22T11:41:32;7.50;;;2.30;;
34060;SDS011;20336;-33.424;-70.638;2022-10-22T11:49:04;7.20;;;2.20;;
34060;SDS011;20336;-33.424;-70.638;2022-10-22T11:51:33;4.00;;;2.03;;
34060;SDS011;20336;-33.424;-70.638;2022-10-22T11:54:07;5.70;;;1.93;;
34060;SDS011;20336;-33.424;-70.638;2022-10-22T11:56:50;8.63;;;2.13;;
34060;SDS011;20336;-33.424;-70.638;2022-10-22T11:59:39;5.67;;;2.10;;
34060;SDS011;20336;-33.424;-70.638;2022-10-22T12:04:51;8.60;;;2.00;;
34060;SDS011;20336;-33.424;-70.638;2022-10-22T12:07:31;8.17;;;2.40;;
34060;SDS011;20336;-33.424;-70.638;2022-10-22T12:09:59;12.60;;;2.70;;
34060;SDS011;20336;-33.424;-70.638;2022-10-22T12:12:25;9.10;;;2.37;;
34060;SDS011;20336;-33.424;-70.638;2022-10-22T12:14:57;8.10;;;2.30;;
34060;SDS011;20336;-33.424;-70.638;2022-10-22T12:17:24;8.60;;;2.37;;
34060;SDS011;20336;-33.424;-70.638;2022-10-22T12:22:47;18.27;;;3.93;;
34060;SDS011;20336;-33.424;-70.638;2022-10-22T12:25:18;14.40;;;4.83;;
34060;SDS011;20336;-33.424;-70.638;2022-10-22T12:27:49;13.33;;;4.70;;
34060;SDS011;20336;-33.424;-70.638;2022-10-22T12:30:18;16.20;;;5.43;;
34060;SDS011;20336;-33.424;-70.638;2022-10-22T12:32:56;22.70;;;5.97;;
34060;SDS011;20336;-33.424;-70.638;2022-10-22T12:35:25;23.30;;;5.83;;
34060;SDS011;20336;-33.424;-70.638;2022-10-22T12:38:35;22.97;;;6.80;;
34060;SDS011;20336;-33.424;-70.638;2022-10-22T12:40:42;22.25;;;6.45;;
34060;SDS011;20336;-33.424;-70.638;2022-10-22T12:43:10;39.00;;;7.25;;
34060;SDS011;20336;-33.424;-70.638;2022-10-22T12:45:38;25.05;;;7.45;;
34060;SDS011;20336;-33.424;-70.638;2022-10-22T12:48:07;20.50;;;7.90;;
34060;SDS011;20336;-33.424;-70.638;2022-10-22T12:50:40;32.38;;;8.00;;
34060;SDS011;20336;-33.424;-70.638;2022-10-22T12:55:53;17.95;;;8.18;;
34060;SDS011;20336;-33.424;-70.638;2022-10-22T12:58:23;18.58;;;8.50;;
34060;SDS011;20336;-33.424;-70.638;2022-10-22T13:00:54;24.23;;;8.98;;
34060;SDS011;20336;-33.424;-70.638;2022-10-22T13:03:27;19.88;;;8.70;;
34060;SDS011;20336;-33.424;-70.638;2022-10-22T13:05:54;22.90;;;8.32;;
34060;SDS011;20336;-33.424;-70.638;2022-10-22T13:08:22;23.10;;;8.05;;
34060;SDS011;20336;-33.424;-70.638;2022-10-22T13:10:50;21.52;;;9.40;;
34060;SDS011;20336;-33.424;-70.638;2022-10-22T13:18:40;17.25;;;8.90;;
34060;SDS011;20336;-33.424;-70.638;2022-10-22T13:21:20;18.27;;;9.63;;
34060;SDS011;20336;-33.424;-70.638;2022-10-22T13:23:54;23.55;;;10.13;;
34060;SDS011;20336;-33.424;-70.638;2022-10-22T13:26:22;21.05;;;9.43;;
34060;SDS011;20336;-33.424;-70.638;2022-10-22T13:28:54;26.50;;;8.70;;
34060;SDS011;20336;-33.424;-70.638;2022-10-22T13:31:23;22.17;;;9.60;;
34060;SDS011;20336;-33.424;-70.638;2022-10-22T13:33:51;19.15;;;10.40;;
34060;SDS011;20336;-33.424;-70.638;2022-10-22T13:36:19;19.48;;;8.73;;
34060;SDS011;20336;-33.424;-70.638;2022-10-22T13:38:48;23.60;;;9.85;;
34060;SDS011;20336;-33.424;-70.638;2022-10-22T13:41:22;20.73;;;9.85;;
34060;SDS011;20336;-33.424;-70.638;2022-10-22T13:43:49;28.13;;;9.68;;
34060;SDS011;20336;-33.424;-70.638;2022-10-22T13:46:16;25.13;;;9.98;;
34060;SDS011;20336;-33.424;-70.638;2022-10-22T13:48:44;21.13;;;9.50;;
34060;SDS011;20336;-33.424;-70.638;2022-10-22T13:51:15;18.42;;;9.55;;
34060;SDS011;20336;-33.424;-70.638;2022-10-22T13:53:44;28.02;;;10.90;;
34060;SDS011;20336;-33.424;-70.638;2022-10-22T13:56:12;21.48;;;10.77;;
34060;SDS011;20336;-33.424;-70.638;2022-10-22T13:58:40;26.70;;;10.75;;
34060;SDS011;20336;-33.424;-70.638;2022-10-22T14:01:10;22.00;;;9.85;;
34060;SDS011;20336;-33.424;-70.638;2022-10-22T14:03:42;18.17;;;8.70;;
34060;SDS011;20336;-33.424;-70.638;2022-10-22T14:06:12;24.88;;;9.93;;
34060;SDS011;20336;-33.424;-70.638;2022-10-22T14:08:40;18.45;;;9.05;;
34060;SDS011;20336;-33.424;-70.638;2022-10-22T14:11:08;19.50;;;9.68;;
34060;SDS011;20336;-33.424;-70.638;2022-10-22T14:13:35;21.77;;;9.98;;
34060;SDS011;20336;-33.424;-70.638;2022-10-22T14:16:02;15.15;;;8.05;;
34060;SDS011;20336;-33.424;-70.638;2022-10-22T14:18:29;20.60;;;8.75;;
34060;SDS011;20336;-33.424;-70.638;2022-10-22T14:20:58;20.52;;;9.38;;
34060;SDS011;20336;-33.424;-70.638;2022-10-22T14:23:29;22.02;;;9.73;;
34060;SDS011;20336;-33.424;-70.638;2022-10-22T14:25:58;19.85;;;8.70;;
34060;SDS011;20336;-33.424;-70.638;2022-10-22T14:28:25;21.17;;;8.52;;
34060;SDS011;20336;-33.424;-70.638;2022-10-22T14:30:52;19.95;;;9.55;;
34060;SDS011;20336;-33.424;-70.638;2022-10-22T14:33:23;18.98;;;9.15;;
34060;SDS011;20336;-33.424;-70.638;2022-10-22T14:35:50;22.80;;;10.27;;
34060;SDS011;20336;-33.424;-70.638;2022-10-22T14:38:17;22.98;;;9.18;;
34060;SDS011;20336;-33.424;-70.638;2022-10-22T14:40:44;18.42;;;9.13;;
34060;SDS011;20336;-33.424;-70.638;2022-10-22T14:43:32;24.73;;;9.30;;
34060;SDS011;20336;-33.424;-70.638;2022-10-22T14:45:58;18.50;;;8.95;;
34060;SDS011;20336;-33.424;-70.638;2022-10-22T14:48:25;18.90;;;9.60;;
34060;SDS011;20336;-33.424;-70.638;2022-10-22T14:50:53;18.80;;;8.75;;
34060;SDS011;20336;-33.424;-70.638;2022-10-22T14:53:20;19.05;;;9.15;;
34060;SDS011;20336;-33.424;-70.638;2022-10-22T14:55:46;13.90;;;8.30;;
34060;SDS011;20336;-33.424;-70.638;2022-10-22T14:58:15;21.67;;;8.52;;
34060;SDS011;20336;-33.424;-70.638;2022-10-22T15:00:43;19.45;;;8.20;;
34060;SDS011;20336;-33.424;-70.638;2022-10-22T15:03:10;20.55;;;8.75;;
34060;SDS011;20336;-33.424;-70.638;2022-10-22T15:05:40;22.55;;;8.63;;
34060;SDS011;20336;-33.424;-70.638;2022-10-22T15:08:09;14.27;;;8.20;;
34060;SDS011;20336;-33.424;-70.638;2022-10-22T15:10:36;21.50;;;10.00;;
34060;SDS011;20336;-33.424;-70.638;2022-10-22T15:13:03;20.90;;;10.05;;
34060;SDS011;20336;-33.424;-70.638;2022-10-22T15:15:29;23.23;;;11.15;;
34060;SDS011;20336;-33.424;-70.638;2022-10-22T15:17:56;23.45;;;10.48;;
34060;SDS011;20336;-33.424;-70.638;2022-10-22T15:20:23;19.90;;;11.65;;
34060;SDS011;20336;-33.424;-70.638;2022-10-22T15:22:50;25.05;;;11.50;;
34060;SDS011;20336;-33.424;-70.638;2022-10-22T15:25:17;25.83;;;12.10;;
34060;SDS011;20336;-33.424;-70.638;2022-10-22T15:27:44;25.15;;;12.05;;
34060;SDS011;20336;-33.424;-70.638;2022-10-22T15:30:11;24.02;;;11.27;;
34060;SDS011;20336;-33.424;-70.638;2022-10-22T15:32:38;26.70;;;11.95;;
34060;SDS011;20336;-33.424;-70.638;2022-10-22T15:35:05;19.85;;;10.70;;
34060;SDS011;20336;-33.424;-70.638;2022-10-22T15:37:32;25.42;;;10.98;;
34060;SDS011;20336;-33.424;-70.638;2022-10-22T15:40:02;20.88;;;11.18;;
34060;SDS011;20336;-33.424;-70.638;2022-10-22T15:42:29;17.48;;;9.48;;
34060;SDS011;20336;-33.424;-70.638;2022-10-22T15:44:56;27.63;;;11.23;;
34060;SDS011;20336;-33.424;-70.638;2022-10-22T15:47:24;28.63;;;11.45;;
34060;SDS011;20336;-33.424;-70.638;2022-10-22T15:49:53;24.25;;;11.02;;
34060;SDS011;20336;-33.424;-70.638;2022-10-22T15:52:20;23.63;;;10.77;;
34060;SDS011;20336;-33.424;-70.638;2022-10-22T15:54:47;31.50;;;12.52;;
34060;SDS011;20336;-33.424;-70.638;2022-10-22T15:57:14;23.77;;;10.73;;
34060;SDS011;20336;-33.424;-70.638;2022-10-22T15:59:41;25.23;;;8.48;;